createdAt,value
2019-05-07T00:01:59.642Z,43.37
2019-05-07T00:04:27.758Z,43.39
2019-05-07T00:06:55.801Z,43.45
2019-05-07T00:09:23.961Z,43.52
2019-05-07T00:11:53.351Z,43.55
2019-05-07T00:14:23.074Z,43.56
2019-05-07T00:16:53.391Z,43.59
2019-05-07T00:19:23.054Z,43.66
2019-05-07T00:21:52.821Z,43.73
2019-05-07T00:24:22.362Z,43.78
2019-05-07T00:26:53.042Z,43.82
2019-05-07T00:29:22.398Z,43.86
2019-05-07T00:31:52.064Z,43.90
2019-05-07T00:34:22.243Z,43.95
2019-05-07T00:37:02.863Z,43.97
2019-05-07T00:39:59.527Z,43.99
2019-05-07T00:42:56.018Z,44.00
2019-05-07T00:45:38.016Z,44.03
2019-05-07T00:48:06.035Z,44.03
2019-05-07T00:50:36.095Z,44.06
2019-05-07T00:53:04.104Z,44.09
2019-05-07T00:55:33.445Z,44.13
2019-05-07T00:58:02.346Z,44.17
2019-05-07T01:00:33.071Z,44.24
2019-05-07T01:03:03.059Z,44.30
2019-05-07T01:05:32.611Z,44.36
2019-05-07T01:08:02.567Z,44.40
2019-05-07T01:10:32.897Z,44.45
2019-05-07T01:13:02.757Z,44.47
2019-05-07T01:15:34.260Z,44.51
2019-05-07T01:18:02.873Z,44.53
2019-05-07T01:20:32.937Z,44.61
2019-05-07T01:23:02.587Z,44.72
2019-05-07T01:25:32.905Z,44.77
2019-05-07T01:28:02.613Z,44.85
2019-05-07T01:30:32.482Z,44.89
2019-05-07T01:33:12.250Z,44.90
2019-05-07T01:35:58.541Z,44.91
2019-05-07T01:38:26.606Z,44.91
2019-05-07T01:40:54.732Z,44.92
2019-05-07T01:43:22.951Z,44.97
2019-05-07T01:45:52.963Z,45.00
2019-05-07T01:48:22.997Z,45.03
2019-05-07T01:50:52.496Z,45.08
2019-05-07T01:53:22.777Z,45.10
2019-05-07T01:55:52.360Z,45.14
2019-05-07T01:58:22.155Z,45.19
2019-05-07T02:00:50.410Z,45.22
2019-05-07T02:03:24.784Z,45.28
2019-05-07T02:06:07.383Z,45.28
2019-05-07T02:08:44.405Z,45.31
2019-05-07T02:11:15.830Z,45.31
2019-05-07T02:13:44.167Z,45.34
2019-05-07T02:16:12.651Z,45.35
2019-05-07T02:18:42.451Z,45.36
2019-05-07T02:21:13.034Z,45.42
2019-05-07T02:23:42.564Z,45.45
2019-05-07T02:26:13.110Z,45.48
2019-05-07T02:28:42.653Z,45.55
2019-05-07T02:31:15.003Z,45.58
2019-05-07T02:33:43.435Z,45.59
2019-05-07T02:36:14.312Z,45.62
2019-05-07T02:38:58.545Z,45.66
2019-05-07T02:41:32.828Z,45.69
2019-05-07T02:44:03.946Z,45.71
2019-05-07T02:46:54.354Z,45.73
2019-05-07T02:49:34.267Z,45.78
2019-05-07T02:52:24.526Z,45.80
2019-05-07T02:55:16.269Z,45.85
2019-05-07T02:57:44.286Z,45.90
2019-05-07T03:00:14.712Z,45.93
2019-05-07T03:02:43.771Z,45.99
2019-05-07T03:05:13.658Z,45.98
2019-05-07T03:07:42.925Z,46.01
2019-05-07T03:10:13.808Z,46.05
2019-05-07T03:12:43.008Z,46.08
2019-05-07T03:15:13.230Z,46.11
2019-05-07T03:17:42.941Z,46.15
2019-05-07T03:20:15.467Z,46.22
2019-05-07T03:22:43.563Z,46.24
2019-05-07T03:25:16.971Z,46.28
2019-05-07T03:27:45.029Z,46.30
2019-05-07T03:30:36.429Z,46.30
2019-05-07T03:33:16.203Z,46.31
2019-05-07T03:35:47.415Z,46.36
2019-05-07T03:38:15.938Z,46.40
2019-05-07T03:40:44.907Z,46.45
2019-05-07T03:43:14.295Z,46.51
2019-05-07T03:46:04.244Z,46.56
2019-05-07T03:48:33.483Z,46.60
2019-05-07T03:51:03.775Z,46.62
2019-05-07T03:53:33.855Z,46.66
2019-05-07T03:56:04.022Z,46.71
2019-05-07T03:58:33.958Z,46.73
2019-05-07T04:01:04.257Z,46.77
2019-05-07T04:03:34.135Z,46.81
2019-05-07T04:06:03.942Z,46.86
2019-05-07T04:08:33.478Z,46.90
2019-05-07T04:11:03.592Z,46.92
2019-05-07T04:13:33.882Z,46.91
2019-05-07T04:16:04.134Z,46.95
2019-05-07T04:18:33.136Z,47.03
2019-05-07T04:21:03.667Z,47.08
2019-05-07T04:23:34.108Z,47.11
2019-05-07T04:26:35.869Z,47.16
2019-05-07T04:29:07.061Z,47.18
2019-05-07T04:31:39.223Z,47.18
2019-05-07T04:34:24.399Z,47.24
2019-05-07T04:36:53.435Z,47.28
2019-05-07T04:39:23.244Z,47.30
2019-05-07T04:41:53.031Z,47.34
2019-05-07T04:44:23.480Z,47.37
2019-05-07T04:46:54.706Z,47.39
2019-05-07T04:49:23.905Z,47.42
2019-05-07T04:52:04.219Z,47.44
2019-05-07T04:54:32.894Z,47.46
2019-05-07T04:57:03.615Z,47.48
2019-05-07T04:59:32.965Z,47.53
2019-05-07T05:04:44.993Z,47.58
2019-05-07T05:07:13.479Z,47.59
2019-05-07T05:09:42.637Z,47.65
2019-05-07T05:12:13.014Z,47.67
2019-05-07T05:14:43.529Z,47.69
2019-05-07T05:17:13.006Z,47.75
2019-05-07T05:19:44.841Z,47.77
2019-05-07T05:22:31.834Z,47.82
2019-05-07T05:25:15.996Z,47.85
2019-05-07T05:27:44.099Z,47.86
2019-05-07T05:30:17.063Z,47.88
2019-05-07T05:32:45.109Z,47.94
2019-05-07T05:35:13.236Z,47.97
2019-05-07T05:37:43.110Z,47.99
2019-05-07T05:40:12.375Z,48.00
2019-05-07T05:42:46.126Z,47.99
2019-05-07T05:45:34.274Z,48.00
2019-05-07T05:48:07.395Z,48.01
2019-05-07T05:50:42.274Z,48.04
2019-05-07T05:53:22.447Z,48.07
2019-05-07T05:55:52.792Z,48.10
2019-05-07T05:58:32.565Z,48.12
2019-05-07T06:01:32.052Z,48.13
2019-05-07T06:04:12.429Z,48.14
2019-05-07T06:06:53.975Z,48.10
2019-05-07T06:09:26.758Z,48.11
2019-05-07T06:12:23.763Z,48.13
2019-05-07T06:15:01.756Z,48.16
2019-05-07T06:17:49.366Z,48.15
2019-05-07T06:20:34.268Z,48.20
2019-05-07T06:23:32.989Z,48.21
2019-05-07T06:26:04.839Z,48.20
2019-05-07T06:28:33.035Z,48.18
2019-05-07T06:31:02.176Z,48.22
2019-05-07T06:33:32.297Z,48.23
2019-05-07T06:36:02.840Z,48.21
2019-05-07T06:38:35.813Z,48.20
2019-05-07T06:41:22.662Z,48.14
2019-05-07T06:43:55.579Z,48.13
2019-05-07T06:46:23.661Z,48.12
2019-05-07T06:48:52.721Z,48.13
2019-05-07T06:51:22.076Z,48.07
2019-05-07T06:53:51.892Z,48.01
2019-05-07T06:56:20.270Z,48.03
2019-05-07T06:59:02.252Z,47.96
2019-05-07T07:02:05.770Z,47.93
2019-05-07T07:04:52.473Z,47.85
2019-05-07T07:07:34.174Z,47.73
2019-05-07T07:10:16.486Z,47.66
2019-05-07T07:12:44.486Z,47.68
2019-05-07T07:15:12.881Z,47.69
2019-05-07T07:17:41.881Z,47.64
2019-05-07T07:20:12.545Z,47.57
2019-05-07T07:22:42.456Z,47.57
2019-05-07T07:25:11.902Z,47.50
2019-05-07T07:27:39.993Z,47.44
2019-05-07T07:30:27.876Z,47.36
2019-05-07T07:32:57.533Z,47.28
2019-05-07T07:35:25.627Z,47.17
2019-05-07T07:37:53.692Z,47.04
2019-05-07T07:40:43.121Z,46.92
2019-05-07T07:43:12.901Z,46.85
2019-05-07T07:45:43.168Z,46.74
2019-05-07T07:48:13.171Z,46.61
2019-05-07T07:50:42.114Z,46.51
2019-05-07T07:53:12.751Z,46.37
2019-05-07T07:55:46.050Z,46.26
2019-05-07T07:58:22.371Z,46.13
2019-05-07T08:01:13.900Z,45.97
2019-05-07T08:03:42.221Z,45.86
2019-05-07T08:06:11.958Z,45.78
2019-05-07T08:08:42.325Z,45.64
2019-05-07T08:11:10.095Z,45.45
2019-05-07T08:13:38.141Z,45.19
2019-05-07T08:16:06.297Z,45.00
2019-05-07T08:18:34.405Z,44.80
2019-05-07T08:21:02.717Z,44.69
2019-05-07T08:23:31.981Z,44.46
2019-05-07T08:26:02.535Z,44.39
2019-05-07T08:28:31.957Z,44.29
2019-05-07T08:31:12.530Z,44.01
2019-05-07T08:33:51.717Z,43.72
2019-05-07T08:36:19.384Z,43.45
2019-05-07T08:38:54.964Z,43.08
2019-05-07T08:41:25.214Z,42.68
2019-05-07T08:44:10.773Z,42.45
2019-05-07T08:46:51.981Z,42.06
2019-05-07T08:49:33.479Z,41.70
2019-05-07T08:52:00.083Z,41.48
2019-05-07T08:54:32.151Z,41.24
2019-05-07T08:57:01.937Z,40.91
2019-05-07T08:59:32.007Z,40.52
2019-05-07T09:02:02.875Z,40.22
2019-05-07T09:04:32.711Z,40.07
2019-05-07T09:07:02.676Z,39.90
2019-05-07T09:09:32.334Z,39.68
2019-05-07T09:12:03.109Z,39.45
2019-05-07T09:14:31.983Z,39.26
2019-05-07T09:17:02.478Z,39.34
2019-05-07T09:19:32.279Z,39.35
2019-05-07T09:22:02.427Z,39.35
2019-05-07T09:24:32.984Z,39.34
2019-05-07T09:27:07.182Z,39.22
2019-05-07T09:29:55.034Z,38.98
2019-05-07T09:32:34.836Z,38.69
2019-05-07T09:35:04.941Z,38.39
2019-05-07T09:37:34.211Z,37.96
2019-05-07T09:40:03.045Z,37.69
2019-05-07T09:42:33.199Z,37.56
2019-05-07T09:45:02.021Z,37.39
2019-05-07T09:47:32.424Z,37.14
2019-05-07T09:50:06.992Z,36.84
2019-05-07T09:52:32.245Z,36.56
2019-05-07T09:55:02.611Z,36.29
2019-05-07T09:57:32.453Z,36.04
2019-05-07T10:00:02.410Z,35.89
2019-05-07T10:02:32.548Z,35.73
2019-05-07T10:05:02.453Z,35.52
2019-05-07T10:07:32.634Z,35.48
2019-05-07T10:10:03.134Z,35.30
2019-05-07T10:12:39.381Z,35.06
2019-05-07T10:15:08.485Z,34.83
2019-05-07T10:17:50.686Z,34.63
2019-05-07T10:20:22.549Z,34.85
2019-05-07T10:22:51.956Z,35.11
2019-05-07T10:25:22.259Z,35.28
2019-05-07T10:27:50.120Z,35.23
2019-05-07T10:30:18.355Z,35.03
2019-05-07T10:32:49.386Z,34.86
2019-05-07T10:35:17.484Z,34.70
2019-05-07T10:37:45.858Z,34.46
2019-05-07T10:40:14.642Z,34.07
2019-05-07T10:42:43.127Z,33.65
2019-05-07T10:45:32.278Z,33.35
2019-05-07T10:48:14.672Z,33.06
2019-05-07T10:50:44.805Z,32.90
2019-05-07T10:53:13.062Z,32.73
2019-05-07T10:55:41.985Z,32.63
2019-05-07T10:58:11.109Z,32.41
2019-05-07T11:00:39.653Z,32.14
2019-05-07T11:03:09.597Z,31.88
2019-05-07T11:05:37.995Z,31.87
2019-05-07T11:08:06.054Z,31.99
2019-05-07T11:10:34.152Z,31.95
2019-05-07T11:13:02.548Z,31.76
2019-05-07T11:15:32.623Z,31.69
2019-05-07T11:18:19.111Z,31.58
2019-05-07T11:21:03.060Z,31.37
2019-05-07T11:23:32.711Z,30.99
2019-05-07T11:26:02.703Z,30.83
2019-05-07T11:28:32.418Z,30.67
2019-05-07T11:31:02.038Z,30.55
2019-05-07T11:33:32.338Z,30.68
2019-05-07T11:36:02.263Z,30.88
2019-05-07T11:38:33.149Z,30.94
2019-05-07T11:41:02.374Z,30.88
2019-05-07T11:44:05.437Z,30.59
2019-05-07T11:46:55.746Z,30.25
2019-05-07T11:49:46.478Z,30.51
2019-05-07T11:52:16.664Z,30.72
2019-05-07T11:54:46.241Z,30.50
2019-05-07T11:57:14.183Z,30.13
2019-05-07T11:59:42.536Z,30.06
2019-05-07T12:02:12.111Z,29.97
2019-05-07T12:04:42.135Z,29.93
2019-05-07T12:07:11.906Z,29.74
2019-05-07T12:09:40.488Z,29.48
2019-05-07T12:12:10.353Z,29.23
2019-05-07T12:14:38.683Z,29.03
2019-05-07T12:17:06.720Z,28.89
2019-05-07T12:19:35.357Z,28.86
2019-05-07T12:22:05.542Z,28.89
2019-05-07T12:24:33.572Z,28.72
2019-05-07T12:27:02.658Z,28.97
2019-05-07T12:29:32.299Z,28.99
2019-05-07T12:32:19.375Z,29.03
2019-05-07T12:34:50.292Z,29.33
2019-05-07T12:37:18.334Z,29.35
2019-05-07T12:39:46.324Z,29.01
2019-05-07T12:42:14.645Z,28.66
2019-05-07T12:44:43.066Z,28.41
2019-05-07T12:47:12.089Z,28.18
2019-05-07T12:49:40.209Z,28.04
2019-05-07T12:52:19.687Z,27.97
2019-05-07T12:55:11.912Z,27.91
2019-05-07T12:57:41.969Z,27.95
2019-05-07T13:00:29.042Z,27.98
2019-05-07T13:03:14.419Z,27.90
2019-05-07T13:05:43.404Z,28.04
2019-05-07T13:08:12.342Z,28.44
2019-05-07T13:10:42.713Z,28.42
2019-05-07T13:13:12.182Z,28.18
2019-05-07T13:15:43.155Z,27.97
2019-05-07T13:18:12.568Z,27.70
2019-05-07T13:20:40.353Z,27.91
2019-05-07T13:23:08.510Z,27.96
2019-05-07T13:25:36.531Z,27.82
2019-05-07T13:28:04.857Z,27.75
2019-05-07T13:30:55.913Z,27.71
2019-05-07T13:33:25.590Z,27.94
2019-05-07T13:35:53.624Z,28.42
2019-05-07T13:38:57.219Z,28.28
2019-05-07T13:41:43.722Z,28.08
2019-05-07T13:44:43.873Z,28.18
2019-05-07T13:47:26.642Z,28.41
2019-05-07T13:49:55.718Z,28.22
2019-05-07T13:52:23.970Z,28.05
2019-05-07T13:54:53.289Z,27.91
2019-05-07T13:57:22.706Z,28.05
2019-05-07T13:59:53.061Z,28.17
2019-05-07T14:02:24.087Z,27.96
2019-05-07T14:04:52.779Z,27.71
2019-05-07T14:07:21.807Z,27.65
2019-05-07T14:09:52.505Z,27.68
2019-05-07T14:12:20.278Z,27.79
2019-05-07T14:14:49.079Z,27.95
2019-05-07T14:17:18.165Z,28.09
2019-05-07T14:19:46.282Z,28.03
2019-05-07T14:22:18.362Z,28.10
2019-05-07T14:24:44.265Z,28.08
2019-05-07T14:27:12.297Z,28.01
2019-05-07T14:29:42.313Z,28.14
2019-05-07T14:32:29.857Z,27.98
2019-05-07T14:35:16.254Z,27.98
2019-05-07T14:37:48.112Z,28.04
2019-05-07T14:40:16.545Z,28.22
2019-05-07T14:42:49.440Z,28.24
2019-05-07T14:45:17.887Z,28.21
2019-05-07T14:47:45.869Z,28.16
2019-05-07T14:50:14.949Z,28.09
2019-05-07T14:52:43.399Z,28.07
2019-05-07T14:55:12.842Z,28.09
2019-05-07T14:57:42.094Z,27.91
2019-05-07T15:00:12.284Z,27.92
2019-05-07T15:02:42.154Z,28.07
2019-05-07T15:05:12.014Z,28.06
2019-05-07T15:07:40.328Z,27.91
2019-05-07T15:10:08.672Z,27.81
2019-05-07T15:12:38.368Z,27.69
2019-05-07T15:15:09.202Z,27.87
2019-05-07T15:17:44.167Z,27.94
2019-05-07T15:20:14.721Z,28.16
2019-05-07T15:22:52.758Z,28.16
2019-05-07T15:25:22.651Z,28.10
2019-05-07T15:27:52.697Z,28.12
2019-05-07T15:30:21.942Z,28.14
2019-05-07T15:32:52.153Z,28.24
2019-05-07T15:35:22.673Z,28.35
2019-05-07T15:37:51.801Z,28.40
2019-05-07T15:40:22.564Z,28.43
2019-05-07T15:42:52.508Z,28.43
2019-05-07T15:45:21.720Z,28.42
2019-05-07T15:47:52.023Z,28.43
2019-05-07T15:50:23.850Z,28.55
2019-05-07T15:53:13.901Z,28.69
2019-05-07T15:55:42.046Z,28.79
2019-05-07T15:58:12.052Z,28.78
2019-05-07T16:00:42.421Z,28.77
2019-05-07T16:03:18.646Z,28.81
2019-05-07T16:05:46.805Z,28.84
2019-05-07T16:08:16.657Z,28.95
2019-05-07T16:10:45.720Z,28.96
2019-05-07T16:13:17.459Z,28.99
2019-05-07T16:15:45.554Z,29.02
2019-05-07T16:18:17.207Z,29.07
2019-05-07T16:20:45.316Z,29.09
2019-05-07T16:23:17.302Z,29.14
2019-05-07T16:25:43.674Z,29.22
2019-05-07T16:28:12.815Z,29.30
2019-05-07T16:30:42.652Z,29.36
2019-05-07T16:33:12.778Z,29.38
2019-05-07T16:35:42.517Z,29.36
2019-05-07T16:38:14.567Z,29.38
2019-05-07T16:40:42.685Z,29.37
2019-05-07T16:43:11.978Z,29.41
2019-05-07T16:45:42.449Z,29.44
2019-05-07T16:48:11.953Z,29.46
2019-05-07T16:50:40.698Z,29.48
2019-05-07T16:53:08.807Z,29.50
2019-05-07T16:55:37.219Z,29.46
2019-05-07T16:58:12.655Z,29.48
2019-05-07T17:00:44.059Z,29.46
2019-05-07T17:03:16.833Z,29.48
2019-05-07T17:05:44.858Z,29.57
2019-05-07T17:08:44.531Z,29.59
2019-05-07T17:11:12.534Z,29.58
2019-05-07T17:13:42.445Z,29.62
2019-05-07T17:16:12.217Z,29.70
2019-05-07T17:18:40.441Z,29.74
2019-05-07T17:21:08.430Z,29.82
2019-05-07T17:23:44.108Z,29.92
2019-05-07T17:26:07.384Z,30.02
2019-05-07T17:28:35.834Z,30.11
2019-05-07T17:31:06.018Z,30.19
2019-05-07T17:33:34.352Z,30.29
2019-05-07T17:36:02.665Z,30.36
2019-05-07T17:38:32.204Z,30.41
2019-05-07T17:41:10.925Z,30.46
2019-05-07T17:43:32.476Z,30.46
2019-05-07T17:46:02.802Z,30.47
2019-05-07T17:48:33.099Z,30.43
2019-05-07T17:51:24.002Z,30.41
2019-05-07T17:53:59.373Z,30.44
2019-05-07T17:56:25.650Z,30.48
2019-05-07T17:58:53.733Z,30.58
2019-05-07T18:01:28.918Z,30.63
2019-05-07T18:03:57.007Z,30.67
2019-05-07T18:06:25.481Z,30.73
2019-05-07T18:09:03.647Z,30.80
2019-05-07T18:11:33.535Z,30.87
2019-05-07T18:14:02.609Z,30.91
2019-05-07T18:17:06.517Z,30.94
2019-05-07T18:19:34.611Z,30.99
2019-05-07T18:22:02.797Z,31.01
2019-05-07T18:24:32.985Z,31.04
2019-05-07T18:27:22.338Z,31.06
2019-05-07T18:29:52.245Z,31.08
2019-05-07T18:32:21.942Z,31.06
2019-05-07T18:34:51.977Z,31.02
2019-05-07T18:37:20.144Z,31.01
2019-05-07T18:39:52.004Z,31.04
2019-05-07T18:42:22.200Z,31.07
2019-05-07T18:44:52.411Z,31.08
2019-05-07T18:47:22.339Z,31.12
2019-05-07T18:50:06.419Z,31.15
2019-05-07T18:52:34.632Z,31.20
2019-05-07T18:55:02.901Z,31.27
2019-05-07T18:57:32.834Z,31.34
2019-05-07T19:00:05.029Z,31.46
2019-05-07T19:02:32.661Z,31.56
2019-05-07T19:05:02.737Z,31.68
2019-05-07T19:07:32.477Z,31.77
2019-05-07T19:10:02.652Z,31.90
2019-05-07T19:12:33.456Z,32.04
2019-05-07T19:15:02.910Z,32.17
2019-05-07T19:17:48.909Z,32.24
2019-05-07T19:20:17.437Z,32.30
2019-05-07T19:22:45.541Z,32.41
2019-05-07T19:25:13.693Z,32.51
2019-05-07T19:27:41.958Z,32.64
2019-05-07T19:30:12.554Z,32.75
2019-05-07T19:32:42.746Z,32.87
2019-05-07T19:35:12.347Z,33.02
2019-05-07T19:37:42.440Z,33.12
2019-05-07T19:40:21.900Z,33.24
2019-05-07T19:42:52.135Z,33.35
2019-05-07T19:45:27.320Z,33.45
2019-05-07T19:47:55.891Z,33.52
2019-05-07T19:50:26.044Z,33.64
2019-05-07T19:52:54.160Z,33.74
2019-05-07T19:55:22.487Z,33.84
2019-05-07T19:57:58.113Z,33.89
2019-05-07T20:00:26.376Z,33.94
2019-05-07T20:02:57.090Z,33.97
2019-05-07T20:05:25.113Z,34.01
2019-05-07T20:07:55.568Z,34.05
2019-05-07T20:10:38.070Z,34.12
2019-05-07T20:13:06.075Z,34.18
2019-05-07T20:15:35.109Z,34.24
2019-05-07T20:18:03.221Z,34.33
2019-05-07T20:20:33.179Z,34.40
2019-05-07T20:23:02.581Z,34.50
2019-05-07T20:25:33.264Z,34.57
2019-05-07T20:28:02.149Z,34.67
2019-05-07T20:30:32.283Z,34.71
2019-05-07T20:33:02.940Z,34.79
2019-05-07T20:35:32.480Z,34.83
2019-05-07T20:38:02.850Z,34.91
2019-05-07T20:40:32.041Z,34.98
2019-05-07T20:43:01.967Z,35.04
2019-05-07T20:45:32.039Z,35.09
2019-05-07T20:48:02.385Z,35.15
2019-05-07T20:50:30.231Z,35.20
2019-05-07T20:52:58.265Z,35.26
2019-05-07T20:55:49.614Z,35.33
2019-05-07T20:58:17.666Z,35.41
2019-05-07T21:00:46.229Z,35.43
2019-05-07T21:03:20.157Z,35.49
2019-05-07T21:05:52.959Z,35.56
2019-05-07T21:08:22.709Z,35.62
2019-05-07T21:10:53.226Z,35.69
2019-05-07T21:13:30.965Z,35.73
2019-05-07T21:15:52.700Z,35.76
2019-05-07T21:18:23.371Z,35.84
2019-05-07T21:20:52.841Z,35.90
2019-05-07T21:23:22.814Z,35.96
2019-05-07T21:25:52.816Z,35.99
2019-05-07T21:28:21.406Z,36.05
2019-05-07T21:30:51.941Z,36.11
2019-05-07T21:33:19.470Z,36.19
2019-05-07T21:35:47.521Z,36.29
2019-05-07T21:38:15.545Z,36.39
2019-05-07T21:40:43.809Z,36.45
2019-05-07T21:43:13.999Z,36.50
2019-05-07T21:45:42.356Z,36.56
2019-05-07T21:48:10.555Z,36.62
2019-05-07T21:50:38.591Z,36.69
2019-05-07T21:53:13.388Z,36.76
2019-05-07T21:56:01.697Z,36.84
2019-05-07T21:58:38.911Z,36.93
2019-05-07T22:01:21.758Z,36.96
2019-05-07T22:03:52.721Z,37.03
2019-05-07T22:06:22.742Z,37.08
2019-05-07T22:08:52.571Z,37.16
2019-05-07T22:11:22.807Z,37.22
2019-05-07T22:13:54.440Z,37.31
2019-05-07T22:16:22.209Z,37.35
2019-05-07T22:18:52.205Z,37.42
2019-05-07T22:21:20.298Z,37.48
2019-05-07T22:23:48.323Z,37.56
2019-05-07T22:26:22.281Z,37.62
2019-05-07T22:28:46.174Z,37.70
2019-05-07T22:31:36.963Z,37.73
2019-05-07T22:34:15.777Z,37.81
2019-05-07T22:36:45.237Z,37.82
2019-05-07T22:39:23.961Z,37.92
2019-05-07T22:41:53.854Z,37.96
2019-05-07T22:44:26.102Z,38.03
2019-05-07T22:46:54.151Z,38.07
2019-05-07T22:49:23.008Z,38.10
2019-05-07T22:51:52.607Z,38.15
2019-05-07T22:54:22.615Z,38.22
2019-05-07T22:57:08.800Z,38.27
2019-05-07T22:59:36.821Z,38.30
2019-05-07T23:02:05.008Z,38.33
2019-05-07T23:04:33.061Z,38.38
2019-05-07T23:07:02.189Z,38.44
2019-05-07T23:09:30.477Z,38.51
2019-05-07T23:11:58.513Z,38.54
2019-05-07T23:14:26.536Z,38.58
2019-05-07T23:16:55.354Z,38.64
2019-05-07T23:19:24.666Z,38.69
2019-05-07T23:21:52.702Z,38.72
2019-05-07T23:24:22.547Z,38.76
2019-05-07T23:26:53.354Z,38.79
2019-05-07T23:29:33.736Z,38.84
2019-05-07T23:32:02.319Z,38.87
2019-05-07T23:34:32.616Z,38.88
2019-05-07T23:37:02.504Z,38.93
2019-05-07T23:39:32.662Z,39.04
2019-05-07T23:42:25.890Z,39.09
2019-05-07T23:44:53.895Z,39.15
2019-05-07T23:47:22.736Z,39.15
2019-05-07T23:49:52.375Z,39.23
2019-05-07T23:52:22.559Z,39.28
2019-05-07T23:54:52.168Z,39.30
2019-05-07T23:57:22.676Z,39.37
2019-05-07T23:59:50.394Z,39.43
